createdAt,value
2018-08-20T00:01:45.904Z,100504.77
2018-08-20T00:04:50.962Z,100503.31
2018-08-20T00:07:48.410Z,100511.45
2018-08-20T00:10:46.190Z,100505.46
2018-08-20T00:13:43.876Z,100507.52
2018-08-20T00:16:41.727Z,100510.55
2018-08-20T00:19:39.814Z,100508.34
2018-08-20T00:22:37.672Z,100504.20
2018-08-20T00:25:38.704Z,100504.59
2018-08-20T00:28:36.507Z,100512.23
2018-08-20T00:31:34.447Z,100508.77
2018-08-20T00:34:32.333Z,100513.03
2018-08-20T00:37:29.708Z,100504.77
2018-08-20T00:40:28.816Z,100504.97
2018-08-20T00:43:26.791Z,100506.05
2018-08-20T00:46:24.036Z,100505.28
2018-08-20T00:49:23.123Z,100504.25
2018-08-20T00:52:21.008Z,100502.47
2018-08-20T00:55:19.924Z,100504.20
2018-08-20T00:58:17.678Z,100497.77
2018-08-20T01:01:15.663Z,100507.95
2018-08-20T01:04:13.503Z,100502.91
2018-08-20T01:07:11.387Z,100497.89
2018-08-20T01:10:08.981Z,100507.17
2018-08-20T01:13:06.805Z,100510.30
2018-08-20T01:16:04.817Z,100505.57
2018-08-20T01:19:02.628Z,100503.55
2018-08-20T01:22:00.342Z,100506.61
2018-08-20T01:24:58.356Z,100506.66
2018-08-20T01:27:57.444Z,100501.56
2018-08-20T01:30:55.295Z,100498.27
2018-08-20T01:33:52.675Z,100495.91
2018-08-20T01:36:50.016Z,100504.11
2018-08-20T01:39:48.150Z,100501.37
2018-08-20T01:42:46.187Z,100501.50
2018-08-20T01:45:44.072Z,100499.91
2018-08-20T01:48:42.013Z,100501.50
2018-08-20T01:51:40.091Z,100502.70
2018-08-20T01:54:38.171Z,100497.91
2018-08-20T01:57:36.036Z,100503.08
2018-08-20T02:00:33.958Z,100504.25
2018-08-20T02:03:31.965Z,100497.61
2018-08-20T02:06:29.954Z,100494.25
2018-08-20T02:09:28.834Z,100492.27
2018-08-20T02:12:26.829Z,100484.45
2018-08-20T02:15:25.872Z,100483.39
2018-08-20T02:18:24.523Z,100483.63
2018-08-20T02:21:22.574Z,100476.48
2018-08-20T02:24:20.466Z,100479.28
2018-08-20T02:27:18.430Z,100474.45
2018-08-20T02:30:16.407Z,100477.95
2018-08-20T02:33:14.147Z,100472.91
2018-08-20T02:36:12.180Z,100466.28
2018-08-20T02:39:10.003Z,100477.61
2018-08-20T02:42:07.177Z,100478.50
2018-08-20T02:45:05.417Z,100476.69
2018-08-20T02:48:03.408Z,100471.17
2018-08-20T02:51:01.287Z,100473.78
2018-08-20T02:53:59.475Z,100466.21
2018-08-20T02:56:57.221Z,100466.97
2018-08-20T02:59:54.411Z,100472.75
2018-08-20T03:02:51.742Z,100478.54
2018-08-20T03:05:49.297Z,100475.36
2018-08-20T03:08:46.603Z,100476.11
2018-08-20T03:11:43.707Z,100472.99
2018-08-20T03:14:41.236Z,100476.55
2018-08-20T03:17:39.298Z,100475.91
2018-08-20T03:20:37.568Z,100468.20
2018-08-20T03:23:35.604Z,100466.48
2018-08-20T03:26:33.311Z,100475.91
2018-08-20T03:29:31.080Z,100476.69
2018-08-20T03:32:29.041Z,100483.78
2018-08-20T03:35:26.616Z,100470.94
2018-08-20T03:38:24.491Z,100479.09
2018-08-20T03:41:22.135Z,100479.80
2018-08-20T03:44:20.073Z,100478.02
2018-08-20T03:47:18.102Z,100475.04
2018-08-20T03:50:15.893Z,100471.11
2018-08-20T03:53:13.643Z,100475.95
2018-08-20T03:56:11.693Z,100476.50
2018-08-20T03:59:09.076Z,100479.52
2018-08-20T04:02:08.972Z,100474.25
2018-08-20T04:05:06.920Z,100462.47
2018-08-20T04:08:04.868Z,100470.20
2018-08-20T04:11:02.401Z,100476.84
2018-08-20T04:14:00.087Z,100485.84
2018-08-20T04:16:58.355Z,100487.23
2018-08-20T04:19:55.672Z,100489.85
2018-08-20T04:22:53.491Z,100489.06
2018-08-20T04:25:50.627Z,100485.42
2018-08-20T04:28:48.726Z,100496.30
2018-08-20T04:31:46.687Z,100500.48
2018-08-20T04:34:44.528Z,100499.00
2018-08-20T04:37:42.235Z,100505.13
2018-08-20T04:40:40.071Z,100503.34
2018-08-20T04:43:37.942Z,100508.69
2018-08-20T04:46:35.305Z,100507.30
2018-08-20T04:49:33.430Z,100512.34
2018-08-20T04:52:31.270Z,100508.03
2018-08-20T04:55:29.356Z,100507.89
2018-08-20T04:58:27.272Z,100513.11
2018-08-20T05:01:24.535Z,100515.73
2018-08-20T05:04:22.667Z,100513.25
2018-08-20T05:07:20.556Z,100510.10
2018-08-20T05:10:17.869Z,100518.78
2018-08-20T05:13:15.503Z,100515.07
2018-08-20T05:16:13.509Z,100517.50
2018-08-20T05:19:11.395Z,100512.96
2018-08-20T05:22:08.668Z,100511.28
2018-08-20T05:25:06.375Z,100514.83
2018-08-20T05:28:04.343Z,100512.86
2018-08-20T05:31:02.126Z,100514.56
2018-08-20T05:33:59.324Z,100517.66
2018-08-20T05:36:57.446Z,100518.80
2018-08-20T05:39:55.353Z,100516.92
2018-08-20T05:42:52.776Z,100520.70
2018-08-20T05:45:51.716Z,100518.56
2018-08-20T05:48:49.601Z,100530.05
2018-08-20T05:51:47.367Z,100528.20
2018-08-20T05:54:45.344Z,100532.45
2018-08-20T05:57:43.423Z,100530.98
2018-08-20T06:00:40.669Z,100531.15
2018-08-20T06:03:37.923Z,100533.80
2018-08-20T06:06:35.284Z,100531.20
2018-08-20T06:09:32.623Z,100531.12
2018-08-20T06:12:30.660Z,100534.06
2018-08-20T06:15:29.844Z,100540.50
2018-08-20T06:18:27.927Z,100550.50
2018-08-20T06:21:25.721Z,100550.02
2018-08-20T06:24:23.560Z,100553.20
2018-08-20T06:27:21.563Z,100557.55
2018-08-20T06:30:18.928Z,100568.92
2018-08-20T06:33:16.070Z,100571.77
2018-08-20T06:36:14.203Z,100576.84
2018-08-20T06:39:12.388Z,100583.53
2018-08-20T06:42:10.297Z,100583.90
2018-08-20T06:45:07.424Z,100577.73
2018-08-20T06:48:04.664Z,100581.69
2018-08-20T06:51:01.804Z,100579.20
2018-08-20T06:53:59.743Z,100574.50
2018-08-20T06:56:57.100Z,100580.41
2018-08-20T06:59:55.252Z,100583.56
2018-08-20T07:02:53.144Z,100587.23
2018-08-20T07:05:50.472Z,100589.46
2018-08-20T07:08:48.475Z,100587.13
2018-08-20T07:11:46.486Z,100591.29
2018-08-20T07:14:44.086Z,100591.22
2018-08-20T07:17:42.118Z,100596.87
2018-08-20T07:20:39.508Z,100600.13
2018-08-20T07:23:37.749Z,100597.34
2018-08-20T07:26:35.480Z,100599.62
2018-08-20T07:29:43.574Z,100601.48
2018-08-20T07:32:41.022Z,100604.84
2018-08-20T07:35:39.012Z,100600.13
2018-08-20T07:38:36.008Z,100601.48
2018-08-20T07:41:33.972Z,100600.07
2018-08-20T07:44:31.748Z,100596.19
2018-08-20T07:47:29.543Z,100599.56
2018-08-20T07:50:27.412Z,100606.38
2018-08-20T07:53:25.159Z,100605.05
2018-08-20T07:56:23.202Z,100600.67
2018-08-20T07:59:22.347Z,100608.02
2018-08-20T08:02:20.280Z,100611.19
2018-08-20T08:05:19.398Z,100615.11
2018-08-20T08:08:17.461Z,100607.75
2018-08-20T08:11:14.736Z,100604.59
2018-08-20T08:14:13.789Z,100611.20
2018-08-20T08:17:11.183Z,100615.83
2018-08-20T08:20:09.143Z,100621.48
2018-08-20T08:23:07.175Z,100620.13
2018-08-20T08:26:05.127Z,100623.50
2018-08-20T08:29:03.356Z,100627.89
2018-08-20T08:32:00.356Z,100627.45
2018-08-20T08:34:58.105Z,100623.78
2018-08-20T08:37:57.236Z,100628.22
2018-08-20T08:40:54.450Z,100627.37
2018-08-20T08:43:52.249Z,100628.45
2018-08-20T08:46:49.756Z,100631.68
2018-08-20T08:49:46.983Z,100628.98
2018-08-20T08:52:44.434Z,100632.17
2018-08-20T08:55:42.399Z,100631.04
2018-08-20T08:58:40.568Z,100632.18
2018-08-20T09:01:38.545Z,100630.73
2018-08-20T09:04:36.532Z,100626.68
2018-08-20T09:07:34.463Z,100629.06
2018-08-20T09:10:31.589Z,100634.08
2018-08-20T09:13:28.671Z,100635.24
2018-08-20T09:16:25.770Z,100639.03
2018-08-20T09:19:23.001Z,100640.30
2018-08-20T09:22:20.880Z,100641.91
2018-08-20T09:25:19.704Z,100639.59
2018-08-20T09:28:17.728Z,100636.13
2018-08-20T09:31:14.731Z,100643.59
2018-08-20T09:34:12.075Z,100643.94
2018-08-20T09:37:09.785Z,100649.30
2018-08-20T09:40:07.119Z,100654.34
2018-08-20T09:43:04.990Z,100643.47
2018-08-20T09:46:02.212Z,100646.59
2018-08-20T09:48:59.295Z,100646.26
2018-08-20T09:51:56.537Z,100646.84
2018-08-20T09:54:54.692Z,100647.77
2018-08-20T09:57:52.495Z,100648.42
2018-08-20T10:00:50.371Z,100648.42
2018-08-20T10:03:51.436Z,100654.75
2018-08-20T10:06:49.686Z,100651.91
2018-08-20T10:09:47.717Z,100648.22
2018-08-20T10:12:45.419Z,100648.12
2018-08-20T10:15:43.509Z,100642.77
2018-08-20T10:18:41.280Z,100648.61
2018-08-20T10:21:39.352Z,100644.16
2018-08-20T10:24:37.558Z,100647.48
2018-08-20T10:27:34.776Z,100647.01
2018-08-20T10:30:33.771Z,100651.75
2018-08-20T10:33:30.913Z,100658.61
2018-08-20T10:36:28.944Z,100667.81
2018-08-20T10:39:27.899Z,100668.06
2018-08-20T10:42:25.792Z,100675.38
2018-08-20T10:45:25.665Z,100674.99
2018-08-20T10:48:23.964Z,100674.80
2018-08-20T10:51:21.830Z,100678.50
2018-08-20T10:54:18.945Z,100673.56
2018-08-20T10:57:16.799Z,100670.55
2018-08-20T11:00:14.763Z,100665.05
2018-08-20T11:03:12.751Z,100668.42
2018-08-20T11:06:10.077Z,100676.41
2018-08-20T11:09:08.052Z,100679.31
2018-08-20T11:12:07.020Z,100671.91
2018-08-20T11:15:04.985Z,100675.79
2018-08-20T11:18:02.924Z,100678.36
2018-08-20T11:21:00.841Z,100678.41
2018-08-20T11:23:58.943Z,100676.78
2018-08-20T11:26:57.525Z,100677.80
2018-08-20T11:29:55.544Z,100679.11
2018-08-20T11:32:53.422Z,100684.70
2018-08-20T11:35:51.433Z,100680.70
2018-08-20T11:38:48.640Z,100681.80
2018-08-20T11:41:46.755Z,100673.00
2018-08-20T11:44:44.814Z,100672.81
2018-08-20T11:47:42.894Z,100675.14
2018-08-20T11:50:40.712Z,100671.08
2018-08-20T11:53:38.593Z,100667.78
2018-08-20T11:56:36.449Z,100668.88
2018-08-20T11:59:33.927Z,100668.46
2018-08-20T12:02:32.000Z,100669.50
2018-08-20T12:05:29.331Z,100660.29
2018-08-20T12:08:27.508Z,100658.02
2018-08-20T12:11:25.572Z,100662.09
2018-08-20T12:14:23.480Z,100666.77
2018-08-20T12:17:21.438Z,100666.42
2018-08-20T12:20:19.920Z,100668.14
2018-08-20T12:23:18.108Z,100674.06
2018-08-20T12:26:15.286Z,100678.09
2018-08-20T12:29:13.221Z,100683.73
2018-08-20T12:32:11.135Z,100679.60
2018-08-20T12:35:08.479Z,100677.44
2018-08-20T12:38:06.469Z,100678.58
2018-08-20T12:41:04.433Z,100676.40
2018-08-20T12:44:02.331Z,100674.45
2018-08-20T12:47:00.311Z,100670.29
2018-08-20T12:49:58.564Z,100675.58
2018-08-20T12:52:56.217Z,100680.36
2018-08-20T12:55:54.376Z,100677.23
2018-08-20T12:58:56.614Z,100681.06
2018-08-20T13:01:54.732Z,100671.48
2018-08-20T13:04:52.731Z,100665.57
2018-08-20T13:07:50.790Z,100665.55
2018-08-20T13:10:48.843Z,100665.21
2018-08-20T13:13:46.835Z,100668.50
2018-08-20T13:16:44.610Z,100674.37
2018-08-20T13:19:42.549Z,100669.84
2018-08-20T13:22:40.575Z,100665.87
2018-08-20T13:25:37.926Z,100666.16
2018-08-20T13:28:35.714Z,100667.41
2018-08-20T13:31:33.640Z,100664.82
2018-08-20T13:34:31.474Z,100666.55
2018-08-20T13:37:29.330Z,100664.81
2018-08-20T13:40:26.665Z,100667.51
2018-08-20T13:43:24.476Z,100667.12
2018-08-20T13:46:22.477Z,100665.02
2018-08-20T13:49:20.276Z,100664.47
2018-08-20T13:52:18.380Z,100660.24
2018-08-20T13:55:16.346Z,100653.22
2018-08-20T13:58:13.827Z,100651.70
2018-08-20T14:01:11.281Z,100662.72
2018-08-20T14:04:08.263Z,100663.37
2018-08-20T14:07:05.980Z,100669.96
2018-08-20T14:10:03.150Z,100663.76
2018-08-20T14:13:01.093Z,100663.46
2018-08-20T14:15:58.417Z,100665.31
2018-08-20T14:18:56.419Z,100661.25
2018-08-20T14:21:54.020Z,100656.64
2018-08-20T14:24:51.873Z,100654.09
2018-08-20T14:27:49.662Z,100657.54
2018-08-20T14:30:47.449Z,100648.04
2018-08-20T14:33:45.396Z,100655.81
2018-08-20T14:36:42.822Z,100655.62
2018-08-20T14:39:40.668Z,100655.49
2018-08-20T14:42:38.697Z,100652.39
2018-08-20T14:45:42.917Z,100646.00
2018-08-20T14:48:41.134Z,100646.73
2018-08-20T14:51:39.023Z,100646.73
2018-08-20T14:54:36.969Z,100634.73
2018-08-20T14:57:34.501Z,100646.41
2018-08-20T15:00:33.721Z,100639.44
2018-08-20T15:03:31.665Z,100639.83
2018-08-20T15:06:29.699Z,100643.89
2018-08-20T15:09:28.831Z,100643.54
2018-08-20T15:12:26.658Z,100638.00
2018-08-20T15:15:24.745Z,100636.66
2018-08-20T15:18:21.772Z,100630.33
2018-08-20T15:21:19.800Z,100630.16
2018-08-20T15:24:16.986Z,100622.80
2018-08-20T15:27:14.351Z,100623.37
2018-08-20T15:30:11.478Z,100620.36
2018-08-20T15:33:08.759Z,100625.31
2018-08-20T15:36:06.614Z,100627.52
2018-08-20T15:39:04.608Z,100622.89
2018-08-20T15:42:02.575Z,100633.36
2018-08-20T15:45:00.702Z,100633.06
2018-08-20T15:47:58.785Z,100633.46
2018-08-20T15:50:56.967Z,100633.55
2018-08-20T15:53:55.813Z,100635.16
2018-08-20T15:56:53.756Z,100634.34
2018-08-20T15:59:50.816Z,100629.81
2018-08-20T16:02:47.918Z,100635.08
2018-08-20T16:05:45.998Z,100642.31
2018-08-20T16:08:43.871Z,100637.72
2018-08-20T16:11:50.016Z,100646.28
2018-08-20T16:14:47.244Z,100650.20
2018-08-20T16:17:45.530Z,100641.18
2018-08-20T16:20:43.252Z,100642.33
2018-08-20T16:23:42.093Z,100644.11
2018-08-20T16:26:39.996Z,100647.10
2018-08-20T16:29:38.115Z,100649.27
2018-08-20T16:32:36.005Z,100644.38
2018-08-20T16:35:34.329Z,100634.98
2018-08-20T16:38:32.258Z,100637.23
2018-08-20T16:41:30.289Z,100642.41
2018-08-20T16:44:28.173Z,100638.97
2018-08-20T16:47:26.105Z,100635.47
2018-08-20T16:50:25.003Z,100639.16
2018-08-20T16:53:22.942Z,100640.39
2018-08-20T16:56:21.040Z,100638.38
2018-08-20T16:59:19.035Z,100640.55
2018-08-20T17:02:18.035Z,100639.95
2018-08-20T17:05:16.049Z,100637.29
2018-08-20T17:08:13.963Z,100641.09
2018-08-20T17:11:11.441Z,100633.37
2018-08-20T17:14:09.541Z,100632.30
2018-08-20T17:17:07.711Z,100628.80
2018-08-20T17:20:05.775Z,100627.94
2018-08-20T17:23:03.857Z,100634.61
2018-08-20T17:26:01.561Z,100634.72
2018-08-20T17:28:59.563Z,100646.69
2018-08-20T17:31:57.372Z,100646.70
2018-08-20T17:34:55.277Z,100647.05
2018-08-20T17:37:53.079Z,100650.69
2018-08-20T17:40:55.361Z,100659.20
2018-08-20T17:43:53.169Z,100659.14
2018-08-20T17:46:51.312Z,100662.73
2018-08-20T17:49:49.348Z,100662.03
2018-08-20T17:52:53.469Z,100662.55
2018-08-20T17:55:51.174Z,100664.90
2018-08-20T17:58:48.957Z,100665.31
2018-08-20T18:01:48.894Z,100669.56
2018-08-20T18:04:47.091Z,100669.44
2018-08-20T18:07:44.908Z,100675.09
2018-08-20T18:10:42.069Z,100671.17
2018-08-20T18:13:54.526Z,100679.21
2018-08-20T18:16:52.567Z,100681.25
2018-08-20T18:19:50.220Z,100678.88
2018-08-20T18:22:48.155Z,100679.86
2018-08-20T18:25:49.281Z,100685.53
2018-08-20T18:29:00.531Z,100694.59
2018-08-20T18:31:57.591Z,100693.00
2018-08-20T18:34:55.479Z,100696.38
2018-08-20T18:37:58.291Z,100703.19
2018-08-20T18:40:56.216Z,100707.01
2018-08-20T18:43:54.124Z,100705.53
2018-08-20T18:46:51.926Z,100711.48
2018-08-20T18:50:02.955Z,100712.10
2018-08-20T18:53:00.913Z,100718.17
2018-08-20T18:56:05.140Z,100717.19
2018-08-20T18:59:03.309Z,100732.02
2018-08-20T19:02:01.272Z,100731.91
2018-08-20T19:04:59.071Z,100737.33
2018-08-20T19:07:57.139Z,100736.60
2018-08-20T19:10:55.330Z,100747.48
2018-08-20T19:13:52.580Z,100750.30
2018-08-20T19:16:51.599Z,100742.37
2018-08-20T19:19:54.657Z,100756.80
2018-08-20T19:22:52.693Z,100749.45
2018-08-20T19:25:50.848Z,100748.28
2018-08-20T19:28:49.038Z,100749.70
2018-08-20T19:31:47.054Z,100751.78
2018-08-20T19:34:44.777Z,100754.80
2018-08-20T19:37:42.104Z,100759.66
2018-08-20T19:40:40.157Z,100754.45
2018-08-20T19:44:10.644Z,100753.48
2018-08-20T19:47:09.623Z,100753.86
2018-08-20T19:50:07.439Z,100750.08
2018-08-20T19:53:05.320Z,100750.19
2018-08-20T19:56:03.038Z,100747.43
2018-08-20T19:59:00.967Z,100752.98
2018-08-20T20:01:58.974Z,100754.17
2018-08-20T20:04:56.129Z,100753.44
2018-08-20T20:07:59.139Z,100752.07
2018-08-20T20:10:57.087Z,100750.73
2018-08-20T20:13:55.994Z,100766.64
2018-08-20T20:17:00.256Z,100755.66
2018-08-20T20:19:58.305Z,100759.89
2018-08-20T20:22:56.237Z,100763.47
2018-08-20T20:25:54.275Z,100761.36
2018-08-20T20:28:51.977Z,100761.53
2018-08-20T20:31:49.858Z,100760.23
2018-08-20T20:34:47.973Z,100761.36
2018-08-20T20:37:46.111Z,100756.45
2018-08-20T20:40:44.098Z,100763.52
2018-08-20T20:43:45.144Z,100761.80
2018-08-20T20:46:43.131Z,100758.92
2018-08-20T20:49:40.584Z,100765.95
2018-08-20T20:52:38.835Z,100766.77
2018-08-20T20:55:36.527Z,100775.06
2018-08-20T20:58:40.680Z,100773.66
2018-08-20T21:01:38.773Z,100775.62
2018-08-20T21:04:36.954Z,100779.31
2018-08-20T21:07:39.893Z,100778.30
2018-08-20T21:10:51.163Z,100784.14
2018-08-20T21:13:49.990Z,100782.27
2018-08-20T21:16:48.121Z,100789.58
2018-08-20T21:19:48.162Z,100785.36
2018-08-20T21:22:46.108Z,100792.25
2018-08-20T21:25:44.231Z,100785.72
2018-08-20T21:28:46.279Z,100788.75
2018-08-20T21:31:59.478Z,100785.27
2018-08-20T21:34:57.109Z,100788.29
2018-08-20T21:37:54.367Z,100789.64
2018-08-20T21:40:52.306Z,100786.57
2018-08-20T21:43:53.474Z,100794.20
2018-08-20T21:46:51.436Z,100793.03
2018-08-20T21:49:49.251Z,100796.43
2018-08-20T21:52:46.580Z,100802.09
2018-08-20T21:55:44.528Z,100802.45
2018-08-20T21:58:42.635Z,100805.79
2018-08-20T22:01:40.603Z,100813.18
2018-08-20T22:04:37.890Z,100801.88
2018-08-20T22:07:35.007Z,100802.86
2018-08-20T22:10:34.213Z,100817.41
2018-08-20T22:13:32.014Z,100818.94
2018-08-20T22:16:36.198Z,100825.03
2018-08-20T22:19:34.181Z,100823.03
2018-08-20T22:22:35.287Z,100824.88
2018-08-20T22:25:34.456Z,100824.56
2018-08-20T22:28:32.688Z,100829.27
2018-08-20T22:31:30.557Z,100831.46
2018-08-20T22:34:28.507Z,100832.98
2018-08-20T22:37:26.436Z,100831.17
2018-08-20T22:40:24.303Z,100828.83
2018-08-20T22:43:22.259Z,100836.19
2018-08-20T22:46:19.734Z,100838.06
2018-08-20T22:49:17.620Z,100831.59
2018-08-20T22:52:15.588Z,100832.27
2018-08-20T22:55:13.359Z,100831.77
2018-08-20T22:58:21.437Z,100834.56
2018-08-20T23:01:18.628Z,100832.25
2018-08-20T23:04:15.788Z,100833.87
2018-08-20T23:07:17.974Z,100835.88
2018-08-20T23:10:15.873Z,100832.89
2018-08-20T23:13:13.845Z,100834.25
2018-08-20T23:16:11.860Z,100838.24
2018-08-20T23:19:10.995Z,100834.61
2018-08-20T23:22:08.947Z,100837.28
2018-08-20T23:25:07.045Z,100837.28
2018-08-20T23:28:04.228Z,100835.08
2018-08-20T23:31:09.229Z,100837.89
2018-08-20T23:34:07.200Z,100838.39
2018-08-20T23:37:05.320Z,100836.73
2018-08-20T23:40:03.042Z,100839.91
2018-08-20T23:43:00.758Z,100842.73
2018-08-20T23:45:58.606Z,100833.92
2018-08-20T23:48:56.529Z,100839.27
2018-08-20T23:51:54.476Z,100838.95
2018-08-20T23:54:52.186Z,100837.42
2018-08-20T23:57:49.323Z,100838.10
